Disclaimer

Please do not use the information listed here in-flight or in-navigation, as they are not provided to us by the airports but are provided by volunteers, so they might be outdated.

Search


Regions


Airport information page

Radio informations:
RDO - 121.3 MHz

Airport informations:
Latitude: 67° 01' 01.09" N
Longitude: 050° 41' 21.57" W
Elevation: 165 feet - 50 meters
Operating hours: N/A
Operating agency: Civil government, landing fees and diplomatic clearance may be required
Timezone: N/A
Fuel: 100/130 MIL Spec, low lead, aviation gasoline (BLUE)

Runway information:
10/28 - 9219 x 197 feet< - >2810 x 60 meters

Recent METARs:
BGSF 181650Z AUTO 08003KT 9999NDV -SHSN OVC028/// M10/M13 Q1005
BGSF 181650Z AUTO 08003KT 9999NDV -SHSN OVC028/// M10/M13 Q1005
BGSF 181750Z AUTO 05004KT 9999NDV OVC029/// M10/M13 Q1006

Airport on the map: